createdAt,value
2018-12-24T00:01:53.609Z,100127.09
2018-12-24T00:04:26.719Z,100125.65
2018-12-24T00:07:04.390Z,100133.16
2018-12-24T00:09:38.441Z,100138.74
2018-12-24T00:12:13.591Z,100132.50
2018-12-24T00:14:47.996Z,100135.91
2018-12-24T00:17:20.903Z,100149.51
2018-12-24T00:19:55.461Z,100163.48
2018-12-24T00:22:28.917Z,100170.52
2018-12-24T00:25:01.939Z,100167.95
2018-12-24T00:27:36.872Z,100184.41
2018-12-24T00:30:16.168Z,100184.23
2018-12-24T00:32:49.196Z,100190.49
2018-12-24T00:35:22.347Z,100202.05
2018-12-24T00:37:55.675Z,100203.60
2018-12-24T00:40:28.696Z,100206.41
2018-12-24T00:43:01.595Z,100210.25
2018-12-24T00:45:37.346Z,100219.11
2018-12-24T00:48:25.642Z,100229.09
2018-12-24T00:50:58.664Z,100228.17
2018-12-24T00:53:33.948Z,100232.70
2018-12-24T00:56:06.912Z,100237.14
2018-12-24T00:58:39.811Z,100248.59
2018-12-24T01:01:13.691Z,100247.20
2018-12-24T01:03:46.905Z,100266.34
2018-12-24T01:06:20.671Z,100278.81
2018-12-24T01:08:57.321Z,100286.42
2018-12-24T01:11:30.341Z,100291.04
2018-12-24T01:14:03.964Z,100308.83
2018-12-24T01:16:38.407Z,100318.40
2018-12-24T01:19:12.029Z,100320.73
2018-12-24T01:21:45.836Z,100324.87
2018-12-24T01:24:19.945Z,100333.16
2018-12-24T01:26:54.067Z,100337.66
2018-12-24T01:29:26.969Z,100344.59
2018-12-24T01:32:00.362Z,100355.25
2018-12-24T01:34:33.302Z,100363.36
2018-12-24T01:37:07.645Z,100363.50
2018-12-24T01:39:41.771Z,100370.52
2018-12-24T01:42:15.849Z,100382.11
2018-12-24T01:44:49.020Z,100386.73
2018-12-24T01:47:22.564Z,100393.56
2018-12-24T01:49:55.586Z,100405.47
2018-12-24T01:52:28.552Z,100409.78
2018-12-24T01:55:03.934Z,100411.20
2018-12-24T01:57:37.000Z,100410.22
2018-12-24T02:00:09.996Z,100416.85
2018-12-24T02:02:45.592Z,100410.94
2018-12-24T02:05:18.306Z,100421.30
2018-12-24T02:07:51.381Z,100427.82
2018-12-24T02:10:24.769Z,100437.25
2018-12-24T02:12:57.752Z,100435.60
2018-12-24T02:15:30.741Z,100438.09
2018-12-24T02:18:05.024Z,100440.80
2018-12-24T02:20:38.359Z,100450.39
2018-12-24T02:23:13.176Z,100452.80
2018-12-24T02:25:46.563Z,100453.00
2018-12-24T02:28:19.564Z,100464.27
2018-12-24T02:30:52.622Z,100461.68
2018-12-24T02:33:29.818Z,100465.50
2018-12-24T02:36:02.804Z,100474.83
2018-12-24T02:38:36.122Z,100476.03
2018-12-24T02:41:09.617Z,100478.73
2018-12-24T02:43:42.950Z,100479.08
2018-12-24T02:46:15.778Z,100491.27
2018-12-24T02:48:50.216Z,100492.66
2018-12-24T02:51:23.757Z,100493.34
2018-12-24T02:53:57.066Z,100493.38
2018-12-24T02:56:33.469Z,100502.98
2018-12-24T02:59:06.525Z,100508.15
2018-12-24T03:01:39.427Z,100515.08
2018-12-24T03:04:12.868Z,100521.92
2018-12-24T03:06:45.800Z,100524.15
2018-12-24T03:09:19.145Z,100532.67
2018-12-24T03:11:52.568Z,100547.33
2018-12-24T03:14:25.388Z,100552.75
2018-12-24T03:16:58.180Z,100557.64
2018-12-24T03:19:31.547Z,100554.67
2018-12-24T03:22:04.369Z,100560.78
2018-12-24T03:24:38.205Z,100563.75
2018-12-24T03:27:11.588Z,100564.50
2018-12-24T03:29:44.859Z,100566.11
2018-12-24T03:32:17.803Z,100564.27
2018-12-24T03:34:51.634Z,100564.55
2018-12-24T03:37:24.898Z,100564.69
2018-12-24T03:39:57.708Z,100577.99
2018-12-24T03:42:32.370Z,100584.05
2018-12-24T03:45:06.921Z,100591.53
2018-12-24T03:47:39.796Z,100596.70
2018-12-24T03:50:14.135Z,100602.75
2018-12-24T03:52:47.622Z,100613.11
2018-12-24T03:55:20.512Z,100613.69
2018-12-24T03:57:53.980Z,100615.81
2018-12-24T04:00:27.160Z,100620.09
2018-12-24T04:03:00.383Z,100626.39
2018-12-24T04:05:33.747Z,100628.08
2018-12-24T04:08:06.898Z,100634.92
2018-12-24T04:10:40.506Z,100645.56
2018-12-24T04:13:22.346Z,100653.02
2018-12-24T04:15:55.928Z,100647.66
2018-12-24T04:18:28.734Z,100648.76
2018-12-24T04:21:03.140Z,100649.85
2018-12-24T04:23:36.180Z,100658.55
2018-12-24T04:26:09.152Z,100662.53
2018-12-24T04:28:42.817Z,100667.63
2018-12-24T04:31:15.689Z,100672.52
2018-12-24T04:33:48.795Z,100673.87
2018-12-24T04:36:22.078Z,100676.52
2018-12-24T04:38:55.018Z,100686.96
2018-12-24T04:41:28.045Z,100685.12
2018-12-24T04:44:02.532Z,100688.47
2018-12-24T04:46:35.443Z,100695.78
2018-12-24T04:49:08.271Z,100698.49
2018-12-24T04:51:42.616Z,100713.73
2018-12-24T04:54:15.470Z,100722.89
2018-12-24T04:56:48.710Z,100718.33
2018-12-24T04:59:22.348Z,100733.95
2018-12-24T05:01:55.511Z,100730.92
2018-12-24T05:04:28.463Z,100738.84
2018-12-24T05:07:01.827Z,100750.36
2018-12-24T05:09:35.417Z,100753.45
2018-12-24T05:12:08.341Z,100771.42
2018-12-24T05:14:42.875Z,100782.69
2018-12-24T05:17:15.808Z,100787.29
2018-12-24T05:19:48.957Z,100793.34
2018-12-24T05:22:22.395Z,100797.14
2018-12-24T05:24:55.219Z,100805.81
2018-12-24T05:27:28.212Z,100815.19
2018-12-24T05:30:03.867Z,100817.30
2018-12-24T05:32:36.854Z,100827.44
2018-12-24T05:35:09.823Z,100836.17
2018-12-24T05:37:44.207Z,100833.66
2018-12-24T05:40:17.865Z,100843.06
2018-12-24T05:42:50.828Z,100857.45
2018-12-24T05:45:24.185Z,100860.86
2018-12-24T05:47:57.187Z,100862.26
2018-12-24T05:50:31.545Z,100872.36
2018-12-24T05:53:05.862Z,100871.83
2018-12-24T05:55:38.839Z,100873.03
2018-12-24T05:58:11.768Z,100882.30
2018-12-24T06:00:46.233Z,100894.28
2018-12-24T06:03:19.196Z,100901.81
2018-12-24T06:05:54.854Z,100903.91
2018-12-24T06:08:29.896Z,100912.70
2018-12-24T06:11:06.935Z,100922.58
2018-12-24T06:13:48.224Z,100926.20
2018-12-24T06:16:21.569Z,100937.75
2018-12-24T06:18:54.528Z,100945.56
2018-12-24T06:21:27.519Z,100946.19
2018-12-24T06:24:00.520Z,100955.16
2018-12-24T06:26:33.485Z,100957.55
2018-12-24T06:29:06.804Z,100964.92
2018-12-24T06:31:40.264Z,100972.42
2018-12-24T06:34:13.287Z,100981.84
2018-12-24T06:36:46.099Z,100997.09
2018-12-24T06:39:20.565Z,101004.00
2018-12-24T06:41:53.430Z,101006.51
2018-12-24T06:44:26.519Z,101011.76
2018-12-24T06:47:00.502Z,101018.59
2018-12-24T06:49:35.268Z,101021.77
2018-12-24T06:52:08.267Z,101014.84
2018-12-24T06:54:42.000Z,101033.77
2018-12-24T06:57:14.895Z,101027.27
2018-12-24T06:59:47.860Z,101031.67
2018-12-24T07:02:22.268Z,101034.88
2018-12-24T07:04:55.511Z,101037.12
2018-12-24T07:07:30.619Z,101042.34
2018-12-24T07:10:04.432Z,101042.23
2018-12-24T07:12:41.057Z,101035.77
2018-12-24T07:15:19.704Z,101035.31
2018-12-24T07:17:53.263Z,101043.00
2018-12-24T07:20:27.119Z,101050.20
2018-12-24T07:23:00.078Z,101052.85
2018-12-24T07:25:33.934Z,101057.56
2018-12-24T07:28:08.520Z,101067.50
2018-12-24T07:30:41.577Z,101070.16
2018-12-24T07:33:14.610Z,101075.81
2018-12-24T07:35:48.209Z,101085.73
2018-12-24T07:38:21.139Z,101090.84
2018-12-24T07:40:54.088Z,101090.71
2018-12-24T07:43:28.204Z,101096.16
2018-12-24T07:46:02.430Z,101099.56
2018-12-24T07:48:37.789Z,101100.34
2018-12-24T07:51:10.830Z,101106.31
2018-12-24T07:53:43.729Z,101109.38
2018-12-24T07:56:17.648Z,101098.66
2018-12-24T07:58:50.608Z,101106.86
2018-12-24T08:01:23.816Z,101110.75
2018-12-24T08:03:58.218Z,101110.06
2018-12-24T08:06:31.380Z,101113.38
2018-12-24T08:09:08.821Z,101117.77
2018-12-24T08:11:44.595Z,101126.48
2018-12-24T08:14:17.728Z,101127.66
2018-12-24T08:16:50.645Z,101127.97
2018-12-24T08:19:23.690Z,101128.35
2018-12-24T08:21:56.677Z,101133.08
2018-12-24T08:24:30.438Z,101139.16
2018-12-24T08:27:03.564Z,101147.98
2018-12-24T08:29:36.515Z,101155.09
2018-12-24T08:32:11.479Z,101165.64
2018-12-24T08:34:44.645Z,101181.61
2018-12-24T08:37:19.404Z,101193.23
2018-12-24T08:39:52.986Z,101194.28
2018-12-24T08:42:25.824Z,101196.00
2018-12-24T08:44:59.736Z,101208.22
2018-12-24T08:47:37.557Z,101214.08
2018-12-24T08:50:10.546Z,101230.14
2018-12-24T08:52:45.872Z,101238.29
2018-12-24T08:55:18.841Z,101243.20
2018-12-24T08:57:53.357Z,101252.47
2018-12-24T09:00:27.288Z,101249.70
2018-12-24T09:03:00.257Z,101249.89
2018-12-24T09:05:34.267Z,101254.07
2018-12-24T09:08:08.119Z,101268.98
2018-12-24T09:10:40.965Z,101269.57
2018-12-24T09:13:14.816Z,101281.41
2018-12-24T09:15:47.785Z,101289.22
2018-12-24T09:18:21.187Z,101291.22
2018-12-24T09:20:54.675Z,101307.21
2018-12-24T09:23:28.591Z,101318.14
2018-12-24T09:26:02.812Z,101324.31
2018-12-24T09:28:35.924Z,101330.05
2018-12-24T09:31:10.393Z,101331.48
2018-12-24T09:33:43.761Z,101326.69
2018-12-24T09:36:18.651Z,101339.66
2018-12-24T09:38:52.145Z,101345.27
2018-12-24T09:41:29.665Z,101355.63
2018-12-24T09:44:02.656Z,101363.48
2018-12-24T09:46:36.536Z,101370.30
2018-12-24T09:49:09.945Z,101383.14
2018-12-24T09:51:44.158Z,101378.47
2018-12-24T09:54:17.222Z,101396.10
2018-12-24T09:56:52.221Z,101382.95
2018-12-24T09:59:30.155Z,101396.65
2018-12-24T10:02:04.762Z,101400.97
2018-12-24T10:04:48.869Z,101398.30
2018-12-24T10:07:45.581Z,101399.07
2018-12-24T10:10:20.348Z,101404.27
2018-12-24T10:12:53.769Z,101404.70
2018-12-24T10:15:27.500Z,101407.38
2018-12-24T10:18:09.807Z,101418.53
2018-12-24T10:20:48.129Z,101416.94
2018-12-24T10:23:22.709Z,101420.32
2018-12-24T10:25:58.624Z,101421.27
2018-12-24T10:28:31.470Z,101424.08
2018-12-24T10:31:05.353Z,101415.88
2018-12-24T10:33:38.404Z,101412.86
2018-12-24T10:36:13.118Z,101407.23
2018-12-24T10:38:47.523Z,101415.28
2018-12-24T10:41:26.913Z,101412.50
2018-12-24T10:44:02.274Z,101420.39
2018-12-24T10:46:35.453Z,101421.62
2018-12-24T10:49:10.744Z,101414.48
2018-12-24T10:51:43.685Z,101418.05
2018-12-24T10:54:17.267Z,101418.00
2018-12-24T10:56:56.719Z,101414.20
2018-12-24T10:59:30.434Z,101422.98
2018-12-24T11:02:07.470Z,101420.50
2018-12-24T11:04:40.447Z,101423.59
2018-12-24T11:07:13.843Z,101427.45
2018-12-24T11:09:50.616Z,101424.31
2018-12-24T11:12:27.049Z,101423.61
2018-12-24T11:15:02.578Z,101424.05
2018-12-24T11:17:36.541Z,101426.87
2018-12-24T11:20:10.879Z,101430.73
2018-12-24T11:22:45.623Z,101415.78
2018-12-24T11:25:19.528Z,101421.43
2018-12-24T11:27:56.574Z,101414.13
2018-12-24T11:30:30.699Z,101421.42
2018-12-24T11:33:05.155Z,101424.27
2018-12-24T11:35:38.759Z,101428.42
2018-12-24T11:38:11.780Z,101436.15
2018-12-24T11:40:48.179Z,101433.03
2018-12-24T11:43:22.554Z,101446.70
2018-12-24T11:45:56.757Z,101450.08
2018-12-24T11:48:31.397Z,101450.14
2018-12-24T11:51:04.675Z,101438.11
2018-12-24T11:53:38.861Z,101444.41
2018-12-24T11:56:13.995Z,101440.53
2018-12-24T11:58:48.810Z,101432.58
2018-12-24T12:01:22.467Z,101433.01
2018-12-24T12:03:57.038Z,101446.06
2018-12-24T12:06:30.828Z,101444.31
2018-12-24T12:09:10.492Z,101444.81
2018-12-24T12:11:44.265Z,101450.51
2018-12-24T12:14:17.238Z,101443.16
2018-12-24T12:16:52.568Z,101455.11
2018-12-24T12:19:26.658Z,101465.07
2018-12-24T12:22:01.255Z,101477.81
2018-12-24T12:24:36.513Z,101476.27
2018-12-24T12:27:10.432Z,101481.36
2018-12-24T12:29:44.171Z,101487.16
2018-12-24T12:32:18.748Z,101492.94
2018-12-24T12:34:52.871Z,101483.52
2018-12-24T12:37:31.973Z,101486.77
2018-12-24T12:40:06.310Z,101484.05
2018-12-24T12:42:39.298Z,101480.09
2018-12-24T12:45:15.026Z,101484.16
2018-12-24T12:47:47.873Z,101488.51
2018-12-24T12:50:26.359Z,101493.94
2018-12-24T12:53:00.357Z,101494.20
2018-12-24T12:55:33.373Z,101501.83
2018-12-24T12:58:06.826Z,101499.58
2018-12-24T13:00:40.953Z,101513.17
2018-12-24T13:03:14.639Z,101519.08
2018-12-24T13:05:48.246Z,101520.50
2018-12-24T13:08:24.247Z,101513.86
2018-12-24T13:10:57.278Z,101516.61
2018-12-24T13:13:36.684Z,101517.17
2018-12-24T13:16:11.033Z,101518.66
2018-12-24T13:18:43.960Z,101518.69
2018-12-24T13:21:18.408Z,101524.01
2018-12-24T13:23:51.946Z,101521.28
2018-12-24T13:26:25.052Z,101532.53
2018-12-24T13:28:58.648Z,101539.30
2018-12-24T13:31:33.325Z,101541.07
2018-12-24T13:34:07.180Z,101540.52
2018-12-24T13:36:43.378Z,101544.89
2018-12-24T13:39:16.519Z,101556.08
2018-12-24T13:41:50.135Z,101549.05
2018-12-24T13:44:23.492Z,101554.78
2018-12-24T13:46:56.564Z,101556.63
2018-12-24T13:49:30.284Z,101559.73
2018-12-24T13:52:04.088Z,101564.16
2018-12-24T13:54:37.750Z,101564.61
2018-12-24T13:57:12.486Z,101574.52
2018-12-24T13:59:46.684Z,101582.19
2018-12-24T14:02:19.786Z,101588.63
2018-12-24T14:04:53.378Z,101586.73
2018-12-24T14:07:28.645Z,101588.33
2018-12-24T14:10:01.619Z,101593.48
2018-12-24T14:12:34.639Z,101602.83
2018-12-24T14:15:08.647Z,101606.34
2018-12-24T14:17:54.602Z,101607.64
2018-12-24T14:20:29.011Z,101614.01
2018-12-24T14:23:04.455Z,101612.40
2018-12-24T14:25:38.579Z,101607.04
2018-12-24T14:28:12.769Z,101613.42
2018-12-24T14:30:46.733Z,101621.52
2018-12-24T14:33:21.003Z,101620.41
2018-12-24T14:35:54.608Z,101629.38
2018-12-24T14:38:27.620Z,101642.99
2018-12-24T14:41:00.538Z,101641.64
2018-12-24T14:43:34.034Z,101646.69
2018-12-24T14:46:06.903Z,101656.58
2018-12-24T14:48:40.538Z,101657.59
2018-12-24T14:51:18.140Z,101660.79
2018-12-24T14:54:07.223Z,101661.39
2018-12-24T14:56:41.457Z,101663.08
2018-12-24T14:59:16.077Z,101677.29
2018-12-24T15:01:48.993Z,101680.70
2018-12-24T15:04:22.822Z,101686.86
2018-12-24T15:06:56.055Z,101697.28
2018-12-24T15:09:29.580Z,101697.03
2018-12-24T15:12:04.212Z,101701.37
2018-12-24T15:14:37.944Z,101708.53
2018-12-24T15:17:11.821Z,101710.71
2018-12-24T15:19:46.267Z,101710.25
2018-12-24T15:22:19.639Z,101707.31
2018-12-24T15:24:52.650Z,101707.01
2018-12-24T15:27:26.445Z,101710.75
2018-12-24T15:30:00.768Z,101713.12
2018-12-24T15:32:34.593Z,101710.62
2018-12-24T15:35:09.056Z,101708.88
2018-12-24T15:37:43.393Z,101716.88
2018-12-24T15:40:16.766Z,101719.02
2018-12-24T15:42:50.489Z,101716.86
2018-12-24T15:45:23.443Z,101721.91
2018-12-24T15:47:56.264Z,101711.14
2018-12-24T15:50:29.235Z,101714.89
2018-12-24T15:53:03.906Z,101713.98
2018-12-24T15:55:38.070Z,101707.61
2018-12-24T15:58:11.880Z,101718.13
2018-12-24T16:00:44.856Z,101726.53
2018-12-24T16:03:25.527Z,101724.67
2018-12-24T16:06:01.516Z,101718.78
2018-12-24T16:08:37.801Z,101722.06
2018-12-24T16:11:11.184Z,101722.14
2018-12-24T16:13:44.701Z,101726.28
2018-12-24T16:16:19.099Z,101732.69
2018-12-24T16:18:55.885Z,101727.47
2018-12-24T16:21:29.542Z,101726.44
2018-12-24T16:24:03.015Z,101722.36
2018-12-24T16:26:36.048Z,101724.45
2018-12-24T16:29:16.197Z,101730.31
2018-12-24T16:31:50.151Z,101735.02
2018-12-24T16:34:25.800Z,101747.66
2018-12-24T16:37:01.522Z,101742.34
2018-12-24T16:39:59.392Z,101745.12
2018-12-24T16:42:36.962Z,101753.42
2018-12-24T16:45:12.580Z,101753.12
2018-12-24T16:47:54.320Z,101760.36
2018-12-24T16:50:29.635Z,101774.98
2018-12-24T16:53:06.360Z,101774.29
2018-12-24T16:55:40.543Z,101775.56
2018-12-24T16:58:15.393Z,101769.25
2018-12-24T17:00:53.593Z,101761.09
2018-12-24T17:03:27.454Z,101765.37
2018-12-24T17:06:00.369Z,101756.97
2018-12-24T17:08:35.396Z,101767.31
2018-12-24T17:11:09.324Z,101782.95
2018-12-24T17:13:43.100Z,101777.19
2018-12-24T17:16:17.365Z,101787.33
2018-12-24T17:18:50.266Z,101792.19
2018-12-24T17:21:23.302Z,101796.36
2018-12-24T17:23:57.496Z,101789.84
2018-12-24T17:26:31.413Z,101789.16
2018-12-24T17:29:05.288Z,101789.41
2018-12-24T17:31:39.323Z,101789.41
2018-12-24T17:34:13.127Z,101784.67
2018-12-24T17:36:47.084Z,101780.67
2018-12-24T17:39:20.490Z,101791.55
2018-12-24T17:41:57.337Z,101796.00
2018-12-24T17:44:31.015Z,101806.45
2018-12-24T17:47:05.683Z,101802.45
2018-12-24T17:49:40.652Z,101807.92
2018-12-24T17:52:14.671Z,101816.09
2018-12-24T17:54:48.039Z,101804.24
2018-12-24T17:57:22.569Z,101798.12
2018-12-24T17:59:55.444Z,101800.39
2018-12-24T18:02:28.799Z,101811.39
2018-12-24T18:05:01.758Z,101818.73
2018-12-24T18:07:34.779Z,101813.55
2018-12-24T18:10:07.713Z,101821.39
2018-12-24T18:12:42.524Z,101821.78
2018-12-24T18:15:19.538Z,101830.06
2018-12-24T18:17:53.743Z,101837.00
2018-12-24T18:20:27.239Z,101839.45
2018-12-24T18:23:00.293Z,101839.52
2018-12-24T18:25:35.091Z,101857.01
2018-12-24T18:28:09.710Z,101867.87
2018-12-24T18:30:44.148Z,101866.76
2018-12-24T18:33:17.666Z,101867.05
2018-12-24T18:35:51.306Z,101859.63
2018-12-24T18:38:25.677Z,101865.34
2018-12-24T18:41:00.661Z,101874.72
2018-12-24T18:43:34.214Z,101880.52
2018-12-24T18:46:07.591Z,101888.70
2018-12-24T18:48:41.376Z,101898.64
2018-12-24T18:51:14.391Z,101910.14
2018-12-24T18:53:47.625Z,101915.19
2018-12-24T18:56:20.463Z,101903.34
2018-12-24T18:58:53.325Z,101899.77
2018-12-24T19:01:26.900Z,101902.16
2018-12-24T19:04:00.958Z,101902.22
2018-12-24T19:06:33.884Z,101910.17
2018-12-24T19:09:08.328Z,101918.69
2018-12-24T19:11:41.290Z,101921.69
2018-12-24T19:14:14.359Z,101930.36
2018-12-24T19:16:48.144Z,101940.83
2018-12-24T19:19:21.970Z,101939.28
2018-12-24T19:21:56.084Z,101939.63
2018-12-24T19:24:38.384Z,101934.44
2018-12-24T19:27:11.293Z,101930.12
2018-12-24T19:29:50.557Z,101921.91
2018-12-24T19:32:26.612Z,101920.31
2018-12-24T19:35:03.215Z,101923.78
2018-12-24T19:37:36.588Z,101922.97
2018-12-24T19:40:11.697Z,101925.70
2018-12-24T19:42:45.461Z,101929.63
2018-12-24T19:46:28.897Z,101925.56
2018-12-24T19:49:03.758Z,101927.00
2018-12-24T19:51:43.664Z,101928.59
2018-12-24T19:54:21.277Z,101928.95
2018-12-24T19:56:54.694Z,101926.81
2018-12-24T19:59:34.048Z,101923.81
2018-12-24T20:02:09.766Z,101923.42
2018-12-24T20:04:44.081Z,101924.56
2018-12-24T20:07:19.352Z,101931.80
2018-12-24T20:09:54.590Z,101932.29
2018-12-24T20:12:30.224Z,101934.56
2018-12-24T20:15:06.548Z,101944.71
2018-12-24T20:17:40.184Z,101947.72
2018-12-24T20:20:13.987Z,101945.69
2018-12-24T20:22:47.619Z,101943.36
2018-12-24T20:25:23.406Z,101944.26
2018-12-24T20:27:58.403Z,101951.87
2018-12-24T20:30:31.408Z,101950.67
2018-12-24T20:33:04.910Z,101960.38
2018-12-24T20:35:38.860Z,101964.14
2018-12-24T20:38:13.521Z,101969.55
2018-12-24T20:40:47.345Z,101975.23
2018-12-24T20:43:22.188Z,101971.63
2018-12-24T20:45:55.970Z,101970.06
2018-12-24T20:48:30.490Z,101973.41
2018-12-24T20:51:04.720Z,101972.33
2018-12-24T20:53:37.823Z,101970.75
2018-12-24T20:56:12.913Z,101974.68
2018-12-24T20:58:47.370Z,101975.49
2018-12-24T21:01:21.547Z,101975.84
2018-12-24T21:03:56.185Z,101979.05
2018-12-24T21:06:29.836Z,101976.80
2018-12-24T21:09:04.817Z,101968.01
2018-12-24T21:11:41.120Z,101971.97
2018-12-24T21:14:17.092Z,101970.82
2018-12-24T21:16:50.764Z,101967.45
2018-12-24T21:19:24.795Z,101964.12
2018-12-24T21:21:59.917Z,101964.78
2018-12-24T21:24:32.867Z,101968.23
2018-12-24T21:27:06.756Z,101962.71
2018-12-24T21:29:41.295Z,101958.27
2018-12-24T21:32:14.295Z,101964.86
2018-12-24T21:34:48.056Z,101961.53
2018-12-24T21:37:21.221Z,101949.97
2018-12-24T21:39:54.197Z,101943.20
2018-12-24T21:42:27.724Z,101937.00
2018-12-24T21:45:03.902Z,101936.57
2018-12-24T21:47:37.638Z,101939.41
2018-12-24T21:50:13.672Z,101947.11
2018-12-24T21:52:46.972Z,101942.21
2018-12-24T21:55:19.998Z,101943.04
2018-12-24T21:57:53.475Z,101947.86
2018-12-24T22:00:28.058Z,101945.61
2018-12-24T22:03:02.142Z,101947.50
2018-12-24T22:05:36.496Z,101951.64
2018-12-24T22:08:09.985Z,101948.28
2018-12-24T22:10:43.981Z,101951.80
2018-12-24T22:13:17.871Z,101959.53
2018-12-24T22:15:56.759Z,101955.58
2018-12-24T22:18:32.370Z,101949.27
2018-12-24T22:21:07.445Z,101958.23
2018-12-24T22:23:41.375Z,101960.86
2018-12-24T22:26:15.741Z,101963.58
2018-12-24T22:28:49.715Z,101961.43
2018-12-24T22:31:25.242Z,101963.45
2018-12-24T22:33:58.269Z,101962.93
2018-12-24T22:36:32.727Z,101965.61
2018-12-24T22:39:08.630Z,101967.69
2018-12-24T22:41:42.620Z,101966.22
2018-12-24T22:44:17.297Z,101964.08
2018-12-24T22:46:50.493Z,101961.16
2018-12-24T22:49:24.558Z,101955.94
2018-12-24T22:51:58.826Z,101959.61
2018-12-24T22:54:32.644Z,101956.39
2018-12-24T22:57:05.641Z,101951.36
2018-12-24T22:59:39.247Z,101948.57
2018-12-24T23:02:12.274Z,101951.13
2018-12-24T23:04:45.179Z,101948.66
2018-12-24T23:07:18.530Z,101941.08
2018-12-24T23:09:52.365Z,101939.70
2018-12-24T23:12:27.706Z,101935.48
2018-12-24T23:15:05.046Z,101937.55
2018-12-24T23:17:39.222Z,101935.51
2018-12-24T23:20:16.424Z,101937.97
2018-12-24T23:22:51.063Z,101940.39
2018-12-24T23:25:24.035Z,101935.63
2018-12-24T23:28:02.934Z,101936.30
2018-12-24T23:30:36.663Z,101938.37
2018-12-24T23:33:11.399Z,101939.69
2018-12-24T23:35:45.832Z,101937.67
2018-12-24T23:38:18.872Z,101929.13
2018-12-24T23:40:51.854Z,101931.91
2018-12-24T23:43:25.449Z,101930.95
2018-12-24T23:46:02.025Z,101936.83
2018-12-24T23:48:36.195Z,101934.72
2018-12-24T23:51:09.703Z,101924.23
2018-12-24T23:53:42.630Z,101928.09
2018-12-24T23:56:17.631Z,101928.84
2018-12-24T23:58:54.175Z,101930.30
